sensor_id;sensor_type;location;lat;lon;timestamp;pressure;altitude;pressure_sealevel;temperature;humidity
75868;BME280;64515;51.446;7.578;2022-12-10T00:01:19;99479.34;;;-0.39;87.20
75868;BME280;64515;51.446;7.578;2022-12-10T00:03:45;99484.59;;;-0.36;86.29
75868;BME280;64515;51.446;7.578;2022-12-10T00:06:15;99484.59;;;-0.39;86.55
75868;BME280;64515;51.446;7.578;2022-12-10T00:08:40;99488.06;;;-0.40;87.33
75868;BME280;64515;51.446;7.578;2022-12-10T00:11:06;99489.88;;;-0.27;85.28
75868;BME280;64515;51.446;7.578;2022-12-10T00:13:32;99487.25;;;-0.28;85.50
75868;BME280;64515;51.446;7.578;2022-12-10T00:16:01;99489.88;;;-0.36;86.61
75868;BME280;64515;51.446;7.578;2022-12-10T00:18:27;99486.31;;;-0.47;86.28
75868;BME280;64515;51.446;7.578;2022-12-10T00:20:53;99484.53;;;-0.55;86.30
75868;BME280;64515;51.446;7.578;2022-12-10T00:23:19;99485.41;;;-0.50;85.92
75868;BME280;64515;51.446;7.578;2022-12-10T00:25:44;99488.00;;;-0.62;86.65
75868;BME280;64515;51.446;7.578;2022-12-10T00:28:09;99489.75;;;-0.67;86.58
75868;BME280;64515;51.446;7.578;2022-12-10T00:30:34;99490.59;;;-0.70;87.52
75868;BME280;64515;51.446;7.578;2022-12-10T00:33:00;99487.97;;;-0.74;86.49
75868;BME280;64515;51.446;7.578;2022-12-10T00:35:25;99489.69;;;-0.76;86.74
75868;BME280;64515;51.446;7.578;2022-12-10T00:37:50;99491.47;;;-0.72;87.01
75868;BME280;64515;51.446;7.578;2022-12-10T00:40:16;99486.25;;;-0.57;85.82
75868;BME280;64515;51.446;7.578;2022-12-10T00:42:41;99488.00;;;-0.62;86.52
75868;BME280;64515;51.446;7.578;2022-12-10T00:45:06;99489.75;;;-0.67;86.77
75868;BME280;64515;51.446;7.578;2022-12-10T00:47:31;99490.66;;;-0.56;86.29
75868;BME280;64515;51.446;7.578;2022-12-10T00:49:57;99491.56;;;-0.51;86.42
75868;BME280;64515;51.446;7.578;2022-12-10T00:52:23;99485.38;;;-0.65;86.48
75868;BME280;64515;51.446;7.578;2022-12-10T00:54:48;99485.34;;;-0.68;87.06
75868;BME280;64515;51.446;7.578;2022-12-10T00:57:13;99495.84;;;-0.74;86.12
75868;BME280;64515;51.446;7.578;2022-12-10T00:59:38;99501.09;;;-0.74;86.26
75868;BME280;64515;51.446;7.578;2022-12-10T01:02:03;99496.75;;;-0.66;86.53
75868;BME280;64515;51.446;7.578;2022-12-10T01:04:28;99489.72;;;-0.64;87.43
75868;BME280;64515;51.446;7.578;2022-12-10T01:06:54;99496.78;;;-0.60;87.17
75868;BME280;64515;51.446;7.578;2022-12-10T01:09:23;99501.16;;;-0.56;86.44
75868;BME280;64515;51.446;7.578;2022-12-10T01:11:50;99499.41;;;-0.55;86.54
75868;BME280;64515;51.446;7.578;2022-12-10T01:14:17;99498.53;;;-0.50;86.29
75868;BME280;64515;51.446;7.578;2022-12-10T01:16:43;99501.19;;;-0.45;86.93
75868;BME280;64515;51.446;7.578;2022-12-10T01:19:08;99504.72;;;-0.43;86.80
75868;BME280;64515;51.446;7.578;2022-12-10T01:21:34;99504.72;;;-0.37;85.72
75868;BME280;64515;51.446;7.578;2022-12-10T01:23:59;99509.97;;;-0.35;85.89
75868;BME280;64515;51.446;7.578;2022-12-10T01:26:26;99512.63;;;-0.30;85.62
75868;BME280;64515;51.446;7.578;2022-12-10T01:28:51;99510.00;;;-0.30;85.31
75868;BME280;64515;51.446;7.578;2022-12-10T01:31:18;99512.59;;;-0.35;85.27
75868;BME280;64515;51.446;7.578;2022-12-10T01:33:44;99516.16;;;-0.30;85.64
75868;BME280;64515;51.446;7.578;2022-12-10T01:36:10;99516.94;;;-0.45;84.67
75868;BME280;64515;51.446;7.578;2022-12-10T01:38:36;99523.09;;;-0.41;85.34
75868;BME280;64515;51.446;7.578;2022-12-10T01:41:01;99526.56;;;-0.49;85.12
75868;BME280;64515;51.446;7.578;2022-12-10T01:43:27;99523.97;;;-0.38;84.68
75868;BME280;64515;51.446;7.578;2022-12-10T01:45:52;99526.56;;;-0.52;85.23
75868;BME280;64515;51.446;7.578;2022-12-10T01:48:18;99524.78;;;-0.59;86.07
75868;BME280;64515;51.446;7.578;2022-12-10T01:50:43;99525.66;;;-0.57;86.26
75868;BME280;64515;51.446;7.578;2022-12-10T01:53:08;99522.19;;;-0.54;86.07
75868;BME280;64515;51.446;7.578;2022-12-10T01:55:36;99531.78;;;-0.58;85.92
75868;BME280;64515;51.446;7.578;2022-12-10T01:58:01;99530.97;;;-0.44;86.00
75868;BME280;64515;51.446;7.578;2022-12-10T02:00:27;99524.84;;;-0.46;86.15
75868;BME280;64515;51.446;7.578;2022-12-10T02:02:56;99526.56;;;-0.49;85.48
75868;BME280;64515;51.446;7.578;2022-12-10T02:07:59;99523.91;;;-0.53;85.28
75868;BME280;64515;51.446;7.578;2022-12-10T02:12:59;99527.50;;;-0.37;85.50
75868;BME280;64515;51.446;7.578;2022-12-10T02:15:30;99530.97;;;-0.43;86.29
75868;BME280;64515;51.446;7.578;2022-12-10T02:17:59;99533.56;;;-0.47;85.75
75868;BME280;64515;51.446;7.578;2022-12-10T02:20:30;99525.69;;;-0.46;84.98
75868;BME280;64515;51.446;7.578;2022-12-10T02:22:57;99527.50;;;-0.37;85.76
75868;BME280;64515;51.446;7.578;2022-12-10T02:25:29;99526.63;;;-0.41;85.87
75868;BME280;64515;51.446;7.578;2022-12-10T02:27:59;99533.63;;;-0.38;85.80
75868;BME280;64515;51.446;7.578;2022-12-10T02:30:28;99531.88;;;-0.39;85.62
75868;BME280;64515;51.446;7.578;2022-12-10T02:32:56;99527.47;;;-0.40;85.70
75868;BME280;64515;51.446;7.578;2022-12-10T02:35:26;99524.00;;;-0.35;85.71
75868;BME280;64515;51.446;7.578;2022-12-10T02:37:54;99519.63;;;-0.37;85.01
75868;BME280;64515;51.446;7.578;2022-12-10T02:40:24;99521.34;;;-0.39;86.60
75868;BME280;64515;51.446;7.578;2022-12-10T02:42:51;99521.34;;;-0.42;86.66
75868;BME280;64515;51.446;7.578;2022-12-10T02:45:17;99521.34;;;-0.39;85.84
75868;BME280;64515;51.446;7.578;2022-12-10T02:47:43;99519.63;;;-0.34;85.67
75868;BME280;64515;51.446;7.578;2022-12-10T02:50:09;99516.09;;;-0.45;84.88
75868;BME280;64515;51.446;7.578;2022-12-10T02:52:35;99512.56;;;-0.47;85.90
75868;BME280;64515;51.446;7.578;2022-12-10T02:55:00;99515.22;;;-0.41;86.62
75868;BME280;64515;51.446;7.578;2022-12-10T02:57:36;99519.63;;;-0.34;86.28
75868;BME280;64515;51.446;7.578;2022-12-10T03:00:12;99524.00;;;-0.33;86.96
75868;BME280;64515;51.446;7.578;2022-12-10T03:08:11;99524.91;;;-0.31;80.54
75868;BME280;64515;51.446;7.578;2022-12-10T03:13:06;99523.19;;;-0.17;83.39
75868;BME280;64515;51.446;7.578;2022-12-10T03:15:34;99526.63;;;-0.36;85.46
75868;BME280;64515;51.446;7.578;2022-12-10T03:18:00;99529.25;;;-0.33;84.87
75868;BME280;64515;51.446;7.578;2022-12-10T03:20:27;99534.56;;;-0.24;85.37
75868;BME280;64515;51.446;7.578;2022-12-10T03:22:53;99529.25;;;-0.32;84.16
75868;BME280;64515;51.446;7.578;2022-12-10T03:25:20;99530.13;;;-0.34;84.43
75868;BME280;64515;51.446;7.578;2022-12-10T03:27:48;99542.41;;;-0.30;85.00
75868;BME280;64515;51.446;7.578;2022-12-10T03:30:17;99537.22;;;-0.14;83.29
75868;BME280;64515;51.446;7.578;2022-12-10T03:32:42;99538.94;;;-0.17;84.67
75868;BME280;64515;51.446;7.578;2022-12-10T03:35:08;99542.41;;;-0.27;85.57
75868;BME280;64515;51.446;7.578;2022-12-10T03:37:35;99535.44;;;-0.22;83.00
75868;BME280;64515;51.446;7.578;2022-12-10T03:40:00;99542.44;;;-0.24;83.67
75868;BME280;64515;51.446;7.578;2022-12-10T03:42:27;99538.06;;;-0.26;84.42
75868;BME280;64515;51.446;7.578;2022-12-10T03:44:52;99540.59;;;-0.40;84.71
75868;BME280;64515;51.446;7.578;2022-12-10T03:47:17;99535.38;;;-0.37;83.69
75868;BME280;64515;51.446;7.578;2022-12-10T03:49:43;99547.63;;;-0.33;84.68
75868;BME280;64515;51.446;7.578;2022-12-10T03:52:08;99548.50;;;-0.40;84.50
75868;BME280;64515;51.446;7.578;2022-12-10T03:54:33;99552.88;;;-0.41;82.80
75868;BME280;64515;51.446;7.578;2022-12-10T03:56:58;99544.09;;;-0.47;82.69
75868;BME280;64515;51.446;7.578;2022-12-10T03:59:23;99543.22;;;-0.46;84.58
75868;BME280;64515;51.446;7.578;2022-12-10T04:01:49;99542.44;;;-0.24;81.07
75868;BME280;64515;51.446;7.578;2022-12-10T04:04:14;99537.13;;;-0.33;82.52
75868;BME280;64515;51.446;7.578;2022-12-10T04:06:40;99537.16;;;-0.36;81.92
75868;BME280;64515;51.446;7.578;2022-12-10T04:09:05;99542.44;;;-0.24;82.23
75868;BME280;64515;51.446;7.578;2022-12-10T04:11:30;99540.69;;;-0.26;81.06
75868;BME280;64515;51.446;7.578;2022-12-10T04:13:55;99545.94;;;-0.22;80.29
75868;BME280;64515;51.446;7.578;2022-12-10T04:16:39;99544.19;;;-0.23;79.84
75868;BME280;64515;51.446;7.578;2022-12-10T04:19:05;99547.63;;;-0.39;80.14
75868;BME280;64515;51.446;7.578;2022-12-10T04:21:31;99544.13;;;-0.38;81.41
75868;BME280;64515;51.446;7.578;2022-12-10T04:24:17;99552.91;;;-0.36;82.26
75868;BME280;64515;51.446;7.578;2022-12-10T04:27:03;99549.38;;;-0.35;80.95
75868;BME280;64515;51.446;7.578;2022-12-10T04:29:30;99545.91;;;-0.31;82.63
75868;BME280;64515;51.446;7.578;2022-12-10T04:31:56;99547.72;;;-0.19;82.44
75868;BME280;64515;51.446;7.578;2022-12-10T04:34:21;99545.06;;;-0.18;80.72
75868;BME280;64515;51.446;7.578;2022-12-10T04:36:47;99547.69;;;-0.24;82.49
75868;BME280;64515;51.446;7.578;2022-12-10T04:39:12;99545.06;;;-0.25;80.85
75868;BME280;64515;51.446;7.578;2022-12-10T04:41:39;99545.94;;;-0.19;81.19
75868;BME280;64515;51.446;7.578;2022-12-10T04:44:04;99542.44;;;-0.24;78.20
75868;BME280;64515;51.446;7.578;2022-12-10T04:46:29;99547.66;;;-0.30;83.12
75868;BME280;64515;51.446;7.578;2022-12-10T04:48:56;99547.66;;;-0.27;81.49
75868;BME280;64515;51.446;7.578;2022-12-10T04:51:21;99552.06;;;-0.27;81.37
75868;BME280;64515;51.446;7.578;2022-12-10T04:53:47;99547.66;;;-0.27;80.07
75868;BME280;64515;51.446;7.578;2022-12-10T04:56:12;99551.22;;;-0.22;79.11
75868;BME280;64515;51.446;7.578;2022-12-10T04:58:37;99552.03;;;-0.24;80.81
75868;BME280;64515;51.446;7.578;2022-12-10T05:01:06;99554.66;;;-0.24;81.35
75868;BME280;64515;51.446;7.578;2022-12-10T05:03:32;99550.28;;;-0.30;81.68
75868;BME280;64515;51.446;7.578;2022-12-10T05:06:03;99545.91;;;-0.28;81.67
75868;BME280;64515;51.446;7.578;2022-12-10T05:08:29;99548.50;;;-0.34;81.96
75868;BME280;64515;51.446;7.578;2022-12-10T05:10:55;99555.53;;;-0.36;81.96
75868;BME280;64515;51.446;7.578;2022-12-10T05:13:20;99558.16;;;-0.33;81.72
75868;BME280;64515;51.446;7.578;2022-12-10T05:15:46;99563.44;;;-0.30;81.96
75868;BME280;64515;51.446;7.578;2022-12-10T05:18:11;99558.25;;;-0.14;80.55
75868;BME280;64515;51.446;7.578;2022-12-10T05:20:36;99563.47;;;-0.18;80.34
75868;BME280;64515;51.446;7.578;2022-12-10T05:23:01;99568.75;;;-0.05;78.71
75868;BME280;64515;51.446;7.578;2022-12-10T05:25:45;99564.34;;;-0.17;78.54
75868;BME280;64515;51.446;7.578;2022-12-10T05:28:22;99565.19;;;-0.29;79.86
75868;BME280;64515;51.446;7.578;2022-12-10T05:30:48;99564.28;;;-0.31;81.76
75868;BME280;64515;51.446;7.578;2022-12-10T05:33:13;99567.78;;;-0.32;81.74
75868;BME280;64515;51.446;7.578;2022-12-10T05:35:39;99561.63;;;-0.43;81.86
75868;BME280;64515;51.446;7.578;2022-12-10T05:38:05;99563.41;;;-0.36;81.69
75868;BME280;64515;51.446;7.578;2022-12-10T05:40:30;99564.25;;;-0.42;81.97
75868;BME280;64515;51.446;7.578;2022-12-10T05:42:56;99564.25;;;-0.39;82.44
75868;BME280;64515;51.446;7.578;2022-12-10T05:45:21;99565.16;;;-0.32;80.71
75868;BME280;64515;51.446;7.578;2022-12-10T05:47:46;99568.66;;;-0.33;81.19
75868;BME280;64515;51.446;7.578;2022-12-10T05:50:11;99564.34;;;-0.15;80.24
75868;BME280;64515;51.446;7.578;2022-12-10T05:52:36;99565.22;;;-0.23;79.80
75868;BME280;64515;51.446;7.578;2022-12-10T05:55:02;99575.69;;;-0.34;81.57
75868;BME280;64515;51.446;7.578;2022-12-10T05:57:27;99573.03;;;-0.30;80.39
75868;BME280;64515;51.446;7.578;2022-12-10T05:59:52;99578.31;;;-0.26;81.19
75868;BME280;64515;51.446;7.578;2022-12-10T06:02:17;99572.19;;;-0.25;81.02
75868;BME280;64515;51.446;7.578;2022-12-10T06:04:42;99569.56;;;-0.31;80.95
75868;BME280;64515;51.446;7.578;2022-12-10T06:07:07;99572.19;;;-0.31;81.16
75868;BME280;64515;51.446;7.578;2022-12-10T06:09:34;99575.75;;;-0.17;79.32
75868;BME280;64515;51.446;7.578;2022-12-10T06:11:59;99579.19;;;-0.30;80.53
75868;BME280;64515;51.446;7.578;2022-12-10T06:14:24;99583.53;;;-0.38;82.38
75868;BME280;64515;51.446;7.578;2022-12-10T06:16:49;99575.72;;;-0.23;80.03
75868;BME280;64515;51.446;7.578;2022-12-10T06:19:14;99582.75;;;-0.15;79.40
75868;BME280;64515;51.446;7.578;2022-12-10T06:21:40;99586.19;;;-0.34;79.66
75868;BME280;64515;51.446;7.578;2022-12-10T06:24:05;99585.25;;;-0.40;82.31
75868;BME280;64515;51.446;7.578;2022-12-10T06:26:30;99579.13;;;-0.42;80.96
75868;BME280;64515;51.446;7.578;2022-12-10T06:28:55;99582.59;;;-0.45;80.00
75868;BME280;64515;51.446;7.578;2022-12-10T06:31:21;99574.69;;;-0.57;79.24
75868;BME280;64515;51.446;7.578;2022-12-10T06:33:46;99579.06;;;-0.53;81.07
75868;BME280;64515;51.446;7.578;2022-12-10T06:36:12;99575.59;;;-0.46;83.36
75868;BME280;64515;51.446;7.578;2022-12-10T06:38:38;99576.50;;;-0.42;82.10
75868;BME280;64515;51.446;7.578;2022-12-10T06:41:03;99578.28;;;-0.35;81.04
75868;BME280;64515;51.446;7.578;2022-12-10T06:43:29;99580.97;;;-0.23;80.02
75868;BME280;64515;51.446;7.578;2022-12-10T06:45:54;99587.94;;;-0.28;80.41
75868;BME280;64515;51.446;7.578;2022-12-10T06:48:19;99587.97;;;-0.25;80.55
75868;BME280;64515;51.446;7.578;2022-12-10T06:50:45;99589.69;;;-0.36;79.14
75868;BME280;64515;51.446;7.578;2022-12-10T06:53:10;99588.75;;;-0.44;82.19
75868;BME280;64515;51.446;7.578;2022-12-10T06:55:36;99587.94;;;-0.31;80.48
75868;BME280;64515;51.446;7.578;2022-12-10T06:58:01;99594.97;;;-0.30;81.49
75868;BME280;64515;51.446;7.578;2022-12-10T07:00:26;99603.69;;;-0.37;81.75
75868;BME280;64515;51.446;7.578;2022-12-10T07:02:51;99604.53;;;-0.35;82.01
75868;BME280;64515;51.446;7.578;2022-12-10T07:05:16;99607.22;;;-0.29;79.44
75868;BME280;64515;51.446;7.578;2022-12-10T07:07:42;99612.44;;;-0.32;80.63
75868;BME280;64515;51.446;7.578;2022-12-10T07:10:07;99604.53;;;-0.37;78.90
75868;BME280;64515;51.446;7.578;2022-12-10T07:12:33;99607.09;;;-0.54;81.73
75868;BME280;64515;51.446;7.578;2022-12-10T07:14:58;99607.97;;;-0.52;81.70
75868;BME280;64515;51.446;7.578;2022-12-10T07:17:23;99610.56;;;-0.53;82.36
75868;BME280;64515;51.446;7.578;2022-12-10T07:19:48;99610.59;;;-0.52;80.96
75868;BME280;64515;51.446;7.578;2022-12-10T07:22:13;99622.00;;;-0.48;82.19
75868;BME280;64515;51.446;7.578;2022-12-10T07:24:39;99621.19;;;-0.36;80.99
75868;BME280;64515;51.446;7.578;2022-12-10T07:27:05;99629.91;;;-0.40;79.22
75868;BME280;64515;51.446;7.578;2022-12-10T07:29:30;99633.44;;;-0.38;81.72
75868;BME280;64515;51.446;7.578;2022-12-10T07:31:55;99641.31;;;-0.35;80.68
75868;BME280;64515;51.446;7.578;2022-12-10T07:34:21;99629.94;;;-0.34;80.87
75868;BME280;64515;51.446;7.578;2022-12-10T07:36:46;99634.34;;;-0.36;81.19
75868;BME280;64515;51.446;7.578;2022-12-10T07:39:12;99637.00;;;-0.24;78.55
75868;BME280;64515;51.446;7.578;2022-12-10T07:41:51;99636.13;;;-0.29;79.01
75868;BME280;64515;51.446;7.578;2022-12-10T07:44:18;99635.22;;;-0.31;80.54
75868;BME280;64515;51.446;7.578;2022-12-10T07:46:44;99629.97;;;-0.28;79.97
75868;BME280;64515;51.446;7.578;2022-12-10T07:49:09;99636.03;;;-0.41;81.92
75868;BME280;64515;51.446;7.578;2022-12-10T07:51:35;99636.03;;;-0.41;77.75
75868;BME280;64515;51.446;7.578;2022-12-10T07:54:00;99635.16;;;-0.43;79.53
75868;BME280;64515;51.446;7.578;2022-12-10T07:56:25;99640.41;;;-0.43;78.28
75868;BME280;64515;51.446;7.578;2022-12-10T07:58:51;99642.16;;;-0.42;80.27
75868;BME280;64515;51.446;7.578;2022-12-10T08:01:18;99639.56;;;-0.38;80.28
75868;BME280;64515;51.446;7.578;2022-12-10T08:03:45;99644.88;;;-0.27;80.66
75868;BME280;64515;51.446;7.578;2022-12-10T08:06:11;99642.28;;;-0.25;80.17
75868;BME280;64515;51.446;7.578;2022-12-10T08:08:38;99640.53;;;-0.17;78.40
75868;BME280;64515;51.446;7.578;2022-12-10T08:11:03;99645.78;;;-0.19;77.02
75868;BME280;64515;51.446;7.578;2022-12-10T08:13:29;99648.38;;;-0.26;77.16
75868;BME280;64515;51.446;7.578;2022-12-10T08:16:00;99644.91;;;-0.22;79.27
75868;BME280;64515;51.446;7.578;2022-12-10T08:18:25;99643.13;;;-0.26;79.36
75868;BME280;64515;51.446;7.578;2022-12-10T08:20:50;99649.22;;;-0.32;78.47
75868;BME280;64515;51.446;7.578;2022-12-10T08:23:15;99647.50;;;-0.27;80.66
75868;BME280;64515;51.446;7.578;2022-12-10T08:25:40;99656.28;;;-0.19;79.70
75868;BME280;64515;51.446;7.578;2022-12-10T08:28:06;99656.31;;;-0.15;79.55
75868;BME280;64515;51.446;7.578;2022-12-10T08:30:31;99656.31;;;-0.15;78.68
75868;BME280;64515;51.446;7.578;2022-12-10T08:32:56;99663.38;;;-0.08;78.30
75868;BME280;64515;51.446;7.578;2022-12-10T08:35:21;99662.50;;;-0.03;79.09
75868;BME280;64515;51.446;7.578;2022-12-10T08:37:47;99671.25;;;-0.08;79.94
75868;BME280;64515;51.446;7.578;2022-12-10T08:40:12;99665.09;;;-0.10;80.04
75868;BME280;64515;51.446;7.578;2022-12-10T08:42:38;99660.75;;;-0.07;80.24
75868;BME280;64515;51.446;7.578;2022-12-10T08:45:03;99670.38;;;-0.07;78.87
75868;BME280;64515;51.446;7.578;2022-12-10T08:47:29;99679.13;;;-0.08;80.04
75868;BME280;64515;51.446;7.578;2022-12-10T08:49:54;99687.84;;;-0.12;79.23
75868;BME280;64515;51.446;7.578;2022-12-10T08:52:19;99679.13;;;-0.14;79.00
75868;BME280;64515;51.446;7.578;2022-12-10T08:54:44;99676.47;;;-0.10;78.77
75868;BME280;64515;51.446;7.578;2022-12-10T08:57:09;99682.63;;;-0.06;78.22
75868;BME280;64515;51.446;7.578;2022-12-10T08:59:34;99680.91;;;-0.04;79.01
75868;BME280;64515;51.446;7.578;2022-12-10T09:02:00;99691.44;;;-0.01;79.15
75868;BME280;64515;51.446;7.578;2022-12-10T09:04:25;99686.19;;;-0.01;79.04
75868;BME280;64515;51.446;7.578;2022-12-10T09:06:50;99696.69;;;0.02;79.10
75868;BME280;64515;51.446;7.578;2022-12-10T09:09:17;99698.53;;;0.19;78.59
75868;BME280;64515;51.446;7.578;2022-12-10T09:11:42;99698.53;;;0.17;78.85
75868;BME280;64515;51.446;7.578;2022-12-10T09:14:08;99700.34;;;0.30;78.46
75868;BME280;64515;51.446;7.578;2022-12-10T09:16:35;99710.84;;;0.32;77.49
75868;BME280;64515;51.446;7.578;2022-12-10T09:19:00;99710.03;;;0.44;75.81
75868;BME280;64515;51.446;7.578;2022-12-10T09:21:26;99713.53;;;0.47;75.75
75868;BME280;64515;51.446;7.578;2022-12-10T09:23:51;99710.91;;;0.49;76.01
75868;BME280;64515;51.446;7.578;2022-12-10T09:26:20;99714.44;;;0.59;76.42
75868;BME280;64515;51.446;7.578;2022-12-10T09:28:46;99710.94;;;0.60;75.33
75868;BME280;64515;51.446;7.578;2022-12-10T09:31:12;99719.75;;;0.74;74.66
75868;BME280;64515;51.446;7.578;2022-12-10T09:33:37;99714.47;;;0.68;75.18
75868;BME280;64515;51.446;7.578;2022-12-10T09:36:03;99710.06;;;0.62;74.97
75868;BME280;64515;51.446;7.578;2022-12-10T09:38:29;99700.44;;;0.57;76.25
75868;BME280;64515;51.446;7.578;2022-12-10T09:41:01;99700.44;;;0.66;75.35
75868;BME280;64515;51.446;7.578;2022-12-10T09:46:31;99716.28;;;0.91;74.29
75868;BME280;64515;51.446;7.578;2022-12-10T09:51:34;99711.88;;;0.79;75.60
75868;BME280;64515;51.446;7.578;2022-12-10T09:54:01;99707.47;;;0.79;75.47
75868;BME280;64515;51.446;7.578;2022-12-10T09:56:31;99713.63;;;0.85;73.78
75868;BME280;64515;51.446;7.578;2022-12-10T09:58:59;99713.59;;;0.57;75.55
75868;BME280;64515;51.446;7.578;2022-12-10T10:01:27;99707.47;;;0.64;76.45
75868;BME280;64515;51.446;7.578;2022-12-10T10:03:52;99710.13;;;0.83;74.77
75868;BME280;64515;51.446;7.578;2022-12-10T10:06:18;99708.34;;;0.71;75.76
75868;BME280;64515;51.446;7.578;2022-12-10T10:08:47;99709.25;;;0.84;73.85
75868;BME280;64515;51.446;7.578;2022-12-10T10:11:18;99716.25;;;0.75;73.63
75868;BME280;64515;51.446;7.578;2022-12-10T10:13:48;99711.84;;;0.76;74.83
75868;BME280;64515;51.446;7.578;2022-12-10T10:19:02;99711.84;;;0.73;76.41
75868;BME280;64515;51.446;7.578;2022-12-10T10:21:28;99712.75;;;0.76;75.13
75868;BME280;64515;51.446;7.578;2022-12-10T10:23:55;99709.22;;;0.79;75.02
75868;BME280;64515;51.446;7.578;2022-12-10T10:26:20;99709.25;;;0.77;75.34
75868;BME280;64515;51.446;7.578;2022-12-10T10:28:45;99709.22;;;0.87;74.76
75868;BME280;64515;51.446;7.578;2022-12-10T10:31:16;99711.88;;;0.84;74.03
75868;BME280;64515;51.446;7.578;2022-12-10T10:33:49;99710.13;;;0.76;73.97
75868;BME280;64515;51.446;7.578;2022-12-10T10:36:15;99714.47;;;0.68;74.47
75868;BME280;64515;51.446;7.578;2022-12-10T10:38:43;99711.88;;;0.79;75.02
75868;BME280;64515;51.446;7.578;2022-12-10T10:41:11;99705.72;;;0.75;74.47
75868;BME280;64515;51.446;7.578;2022-12-10T10:43:42;99707.47;;;0.76;74.54
75868;BME280;64515;51.446;7.578;2022-12-10T10:46:16;99714.50;;;0.81;76.89
75868;BME280;64515;51.446;7.578;2022-12-10T10:48:42;99714.50;;;0.93;74.91
75868;BME280;64515;51.446;7.578;2022-12-10T10:53:44;99712.75;;;0.83;74.31
75868;BME280;64515;51.446;7.578;2022-12-10T10:58:35;99718.00;;;0.79;75.16
75868;BME280;64515;51.446;7.578;2022-12-10T11:01:02;99713.63;;;0.78;74.87
75868;BME280;64515;51.446;7.578;2022-12-10T11:03:28;99718.00;;;0.83;74.12
75868;BME280;64515;51.446;7.578;2022-12-10T11:05:54;99723.28;;;0.95;74.76
75868;BME280;64515;51.446;7.578;2022-12-10T11:08:20;99718.91;;;0.91;74.01
75868;BME280;64515;51.446;7.578;2022-12-10T11:10:57;99715.41;;;0.98;74.88
75868;BME280;64515;51.446;7.578;2022-12-10T11:13:27;99708.34;;;0.77;75.51
75868;BME280;64515;51.446;7.578;2022-12-10T11:15:58;99717.16;;;0.94;75.00
75868;BME280;64515;51.446;7.578;2022-12-10T11:18:25;99710.16;;;0.98;73.55
75868;BME280;64515;51.446;7.578;2022-12-10T11:20:58;99709.25;;;0.93;75.87
75868;BME280;64515;51.446;7.578;2022-12-10T11:23:25;99713.63;;;0.86;75.29
75868;BME280;64515;51.446;7.578;2022-12-10T11:34:34;99712.78;;;0.98;72.97
75868;BME280;64515;51.446;7.578;2022-12-10T11:36:35;99708.38;;;1.05;73.28
75868;BME280;64515;51.446;7.578;2022-12-10T11:41:37;99718.03;;;0.98;74.04
75868;BME280;64515;51.446;7.578;2022-12-10T11:44:15;99724.19;;;0.95;76.79
75868;BME280;64515;51.446;7.578;2022-12-10T11:46:53;99719.78;;;0.93;74.64
75868;BME280;64515;51.446;7.578;2022-12-10T11:49:25;99721.56;;;0.97;76.18
75868;BME280;64515;51.446;7.578;2022-12-10T11:52:08;99721.56;;;0.95;76.42
75868;BME280;64515;51.446;7.578;2022-12-10T11:54:40;99718.03;;;1.01;73.92
75868;BME280;64515;51.446;7.578;2022-12-10T12:02:28;99723.31;;;0.92;72.85
75868;BME280;64515;51.446;7.578;2022-12-10T12:05:04;99725.94;;;0.86;76.38
75868;BME280;64515;51.446;7.578;2022-12-10T12:07:38;99730.28;;;0.81;76.40
75868;BME280;64515;51.446;7.578;2022-12-10T12:10:28;99730.31;;;0.96;74.04
75868;BME280;64515;51.446;7.578;2022-12-10T12:13:02;99726.78;;;0.75;73.86
75868;BME280;64515;51.446;7.578;2022-12-10T12:15:29;99723.31;;;0.92;74.29
75868;BME280;64515;51.446;7.578;2022-12-10T12:17:59;99728.59;;;1.04;74.00
75868;BME280;64515;51.446;7.578;2022-12-10T12:22:57;99728.56;;;0.95;75.08
75868;BME280;64515;51.446;7.578;2022-12-10T12:25:27;99735.56;;;0.93;75.55
75868;BME280;64515;51.446;7.578;2022-12-10T12:30:25;99721.56;;;0.95;76.89
75868;BME280;64515;51.446;7.578;2022-12-10T12:32:59;99725.03;;;0.84;76.26
75868;BME280;64515;51.446;7.578;2022-12-10T12:37:53;99726.78;;;0.88;77.07
75868;BME280;64515;51.446;7.578;2022-12-10T12:42:56;99727.72;;;0.99;76.50
75868;BME280;64515;51.446;7.578;2022-12-10T12:46:10;99725.06;;;1.11;75.24
75868;BME280;64515;51.446;7.578;2022-12-10T12:53:31;99728.56;;;0.86;75.79
75868;BME280;64515;51.446;7.578;2022-12-10T12:55:58;99730.28;;;0.87;77.73
75868;BME280;64515;51.446;7.578;2022-12-10T13:03:54;99726.84;;;1.19;74.41
75868;BME280;64515;51.446;7.578;2022-12-10T13:08:48;99722.44;;;1.07;75.35
75868;BME280;64515;51.446;7.578;2022-12-10T13:13:40;99716.31;;;1.19;73.30
75868;BME280;64515;51.446;7.578;2022-12-10T13:18:53;99722.44;;;1.02;74.40
75868;BME280;64515;51.446;7.578;2022-12-10T13:21:34;99726.81;;;1.03;76.60
75868;BME280;64515;51.446;7.578;2022-12-10T13:32:19;99730.34;;;1.11;75.21
75868;BME280;64515;51.446;7.578;2022-12-10T13:34:45;99733.84;;;1.04;77.33
75868;BME280;64515;51.446;7.578;2022-12-10T13:39:52;99730.34;;;0.99;77.23
75868;BME280;64515;51.446;7.578;2022-12-10T13:50:05;99737.34;;;0.91;76.87
75868;BME280;64515;51.446;7.578;2022-12-10T13:55:26;99736.44;;;0.83;77.01
75868;BME280;64515;51.446;7.578;2022-12-10T13:57:56;99736.44;;;0.83;77.02
75868;BME280;64515;51.446;7.578;2022-12-10T14:00:47;99741.69;;;0.84;76.49
75868;BME280;64515;51.446;7.578;2022-12-10T14:06:18;99739.97;;;0.85;76.64
75868;BME280;64515;51.446;7.578;2022-12-10T14:08:54;99739.97;;;0.85;76.38
75868;BME280;64515;51.446;7.578;2022-12-10T14:11:21;99744.34;;;0.86;76.15
75868;BME280;64515;51.446;7.578;2022-12-10T14:13:49;99754.84;;;0.83;75.41
75868;BME280;64515;51.446;7.578;2022-12-10T14:16:18;99749.56;;;0.79;76.33
75868;BME280;64515;51.446;7.578;2022-12-10T14:18:45;99740.81;;;0.81;77.06
75868;BME280;64515;51.446;7.578;2022-12-10T14:21:14;99746.09;;;0.87;75.53
75868;BME280;64515;51.446;7.578;2022-12-10T14:23:44;99753.09;;;0.78;75.43
75868;BME280;64515;51.446;7.578;2022-12-10T14:26:14;99756.56;;;0.70;77.38
75868;BME280;64515;51.446;7.578;2022-12-10T14:28:50;99753.97;;;0.74;77.23
75868;BME280;64515;51.446;7.578;2022-12-10T14:31:17;99756.56;;;0.68;78.72
75868;BME280;64515;51.446;7.578;2022-12-10T14:33:45;99751.28;;;0.65;77.13
75868;BME280;64515;51.446;7.578;2022-12-10T14:36:21;99760.13;;;0.76;75.90
75868;BME280;64515;51.446;7.578;2022-12-10T14:38:47;99765.38;;;0.70;76.10